Aérodrome :







RETROUVEZ-NOUS SUR...

 
LOGIN :

S'inscrire | Disclaimer

   EN    FR    IT 

 









Légende :    VFR   VFR Marginal   IFR   IFR Intensif   IFR Très Intensif
Visi : 
Plafond : 
>= 8 km
>= 3000ft
5 à 8 km
1000 à 3000 ft
1500m à 5 km
500 à 1000 ft
800 à 1500m
200 à 500 ft
< 800m
< 200 ft
Symboles :   Orages  Brouillard  Fortes neiges  Fortes précipitations  Vent > 20 kt






- Altitude de l'aérodrome : 1825 ft


K8B0 - Steven A. Bean Municipal

DERNIER METAR :
  • 181955Z AUTO 00000KT 10SM CLR M12/M16 A3012 RMK AO2

METARs EXPIRÉS :
  • 181935Z AUTO 00000KT 10SM SCT110 M12/M16 A3014 RMK AO2
  • 181915Z AUTO 00000KT 10SM BKN110 M13/M17 A3015 RMK AO2
  • 181855Z AUTO 00000KT 10SM SCT120 M12/M17 A3015 RMK AO2
  • 181835Z AUTO 00000KT 10SM CLR M12/M17 A3016 RMK AO2
  • 181815Z AUTO 00000KT 10SM CLR M13/M17 A3018 RMK AO2
  • 181755Z AUTO 00000KT 10SM CLR M12/M17 A3021 RMK AO2
  • 181735Z AUTO 00000KT 10SM CLR M13/M18 A3023 RMK AO2
  • 181715Z AUTO 26003KT 10SM SCT120 M15/M19 A3024 RMK AO2

TAF N/A



MET'MAP, la Météo Aéronautique d'un coup d'oeil ! - Copyright ORBIFLY Décembre 2007 - Disclaimer

ORBIFLY MET'MAP TEAM :

Programmation & Développement : Alexandra Zaïnal
Sur une idée originale de : Baudouin d'Aumeries
Assistance à la programmation : Marc-Olivier Méhu
Soutien technique & logistique : Manuel Goepfert

Contact : metmap@orbifly.com




SOURCES & CREDITS :

   NOAA